createdAt,value
2022-10-21T00:09:46.902Z,58.98
2022-10-21T00:20:15.409Z,59.08
2022-10-21T00:30:46.344Z,58.85
2022-10-21T00:41:14.078Z,59.07
2022-10-21T00:51:41.927Z,59.05
2022-10-21T01:02:09.502Z,58.99
2022-10-21T01:12:45.560Z,58.71
2022-10-21T01:23:55.738Z,58.84
2022-10-21T01:34:29.972Z,58.95
2022-10-21T01:45:03.905Z,59.13
2022-10-21T01:55:33.540Z,58.96
2022-10-21T02:06:01.098Z,59.08
2022-10-21T02:16:33.033Z,58.86
2022-10-21T02:27:00.517Z,58.78
2022-10-21T02:37:34.366Z,58.54
2022-10-21T02:48:01.829Z,58.71
2022-10-21T02:58:29.206Z,58.50
2022-10-21T03:08:56.603Z,58.29
2022-10-21T03:19:23.830Z,58.56
2022-10-21T03:29:51.104Z,58.56
2022-10-21T03:40:18.674Z,58.58
2022-10-21T03:50:45.944Z,58.87
2022-10-21T04:01:15.170Z,58.77
2022-10-21T04:11:42.552Z,58.94
2022-10-21T04:22:09.971Z,58.90
2022-10-21T04:32:37.735Z,58.82
2022-10-21T04:43:05.941Z,59.31
2022-10-21T04:53:33.590Z,59.18
2022-10-21T05:04:00.815Z,58.82
2022-10-21T05:14:28.137Z,58.86
2022-10-21T05:24:55.466Z,59.04
2022-10-21T05:35:22.754Z,58.80
2022-10-21T05:45:50.162Z,58.68
2022-10-21T05:56:17.441Z,59.30
2022-10-21T06:06:44.769Z,59.35
2022-10-21T06:17:12.230Z,59.49
2022-10-21T06:27:39.863Z,59.53
2022-10-21T06:38:07.441Z,59.80
2022-10-21T06:48:35.410Z,60.04
2022-10-21T06:59:02.661Z,60.50
2022-10-21T07:09:30.808Z,60.74
2022-10-21T07:19:58.165Z,61.26
2022-10-21T07:30:25.511Z,61.77
2022-10-21T07:40:52.889Z,62.61
2022-10-21T07:51:25.736Z,63.30
2022-10-21T08:01:56.433Z,63.70
2022-10-21T08:12:23.776Z,63.82
2022-10-21T08:22:51.098Z,64.56
2022-10-21T08:33:18.581Z,64.82
2022-10-21T08:43:46.570Z,65.15
2022-10-21T08:54:20.285Z,65.89
2022-10-21T09:04:54.367Z,66.27
2022-10-21T09:15:28.541Z,66.57
2022-10-21T09:26:01.738Z,66.34
2022-10-21T09:36:33.473Z,66.32
2022-10-21T09:47:00.785Z,66.34
2022-10-21T09:57:43.612Z,66.13
2022-10-21T10:08:34.816Z,66.02
2022-10-21T10:19:18.201Z,65.90
2022-10-21T10:29:53.652Z,65.03
2022-10-21T10:40:25.721Z,64.87
2022-10-21T10:50:53.633Z,64.51
2022-10-21T11:01:36.586Z,64.26
2022-10-21T11:12:07.698Z,64.17
2022-10-21T11:22:44.885Z,64.19
2022-10-21T11:33:25.671Z,63.92
2022-10-21T11:44:03.597Z,63.74
2022-10-21T11:54:59.689Z,63.71
2022-10-21T12:05:36.978Z,63.72
2022-10-21T12:16:10.005Z,63.49
2022-10-21T12:26:41.780Z,60.17
2022-10-21T12:37:44.353Z,58.14
2022-10-21T12:48:33.081Z,57.55
2022-10-21T12:59:04.591Z,56.40
2022-10-21T13:09:43.663Z,55.76
2022-10-21T13:20:47.796Z,55.09
2022-10-21T13:31:23.268Z,54.91
2022-10-21T13:41:59.805Z,54.98
2022-10-21T13:52:31.461Z,55.45
2022-10-21T14:03:04.950Z,55.67
2022-10-21T14:13:36.978Z,55.95
2022-10-21T14:24:05.143Z,56.26
2022-10-21T14:34:34.014Z,56.77
2022-10-21T14:45:05.938Z,56.35
2022-10-21T14:55:33.597Z,56.18
2022-10-21T15:06:13.034Z,56.61
2022-10-21T15:16:46.174Z,56.73
2022-10-21T15:27:19.696Z,57.35
2022-10-21T15:37:50.582Z,57.87
2022-10-21T15:48:18.364Z,58.63
2022-10-21T15:58:45.815Z,58.78
2022-10-21T16:09:19.701Z,58.71
2022-10-21T16:19:48.318Z,58.65
2022-10-21T16:30:21.781Z,58.66
2022-10-21T16:40:49.001Z,58.74
2022-10-21T16:51:16.473Z,58.67
2022-10-21T17:01:44.223Z,58.59
2022-10-21T17:12:13.180Z,58.51
2022-10-21T17:22:40.662Z,58.57
2022-10-21T17:33:10.687Z,58.40
2022-10-21T17:43:41.621Z,58.38
2022-10-21T17:54:10.976Z,58.57
2022-10-21T18:04:38.350Z,58.72
2022-10-21T18:15:06.867Z,58.88
2022-10-21T18:25:35.665Z,59.21
2022-10-21T18:36:11.783Z,59.88
2022-10-21T18:46:40.795Z,60.92
2022-10-21T18:57:10.173Z,61.84
2022-10-21T19:07:38.005Z,62.32
2022-10-21T19:18:05.743Z,62.62
2022-10-21T19:28:34.060Z,62.65
2022-10-21T19:38:59.769Z,63.13
2022-10-21T19:49:27.162Z,63.20
2022-10-21T19:59:54.488Z,62.67
2022-10-21T20:10:23.743Z,62.07
2022-10-21T20:20:51.456Z,61.39
2022-10-21T20:31:19.781Z,60.97
2022-10-21T20:41:45.565Z,61.30
2022-10-21T20:52:12.933Z,61.29
2022-10-21T21:02:40.676Z,61.56
2022-10-21T21:13:08.004Z,61.61
2022-10-21T21:23:35.831Z,61.78
2022-10-21T21:34:03.142Z,61.89
2022-10-21T21:44:30.753Z,62.24
2022-10-21T21:54:58.566Z,62.33
2022-10-21T22:05:27.153Z,62.60
2022-10-21T22:15:54.429Z,62.86
2022-10-21T22:26:26.581Z,62.87
2022-10-21T22:36:54.078Z,62.72
2022-10-21T22:47:23.446Z,62.69
2022-10-21T22:57:51.937Z,62.91
2022-10-21T23:08:17.809Z,63.18
2022-10-21T23:18:45.118Z,63.31
2022-10-21T23:29:12.750Z,63.39
2022-10-21T23:39:40.279Z,63.15
2022-10-21T23:50:10.166Z,63.13
